KRIL

Rifle Garfield County Airport

Rifle, Colorado, USA
METAR KRIL 182053Z AUTO VRB03KT 10SM CLR 26/11 A3019 RMK AO2 SLP153 T02610111 58034
Observed Flight Rules
Aug-18 @ 20:53 UTC (an hour ago) Visual Flight Rules
Wind Visibility Clouds
Variable at 3 knots 10 miles
  • Clear skies
Temperatures Readings
Current 26°C / 79°F
Dewpoint 11°C / 52°F
Humidity 39%
Altimeter 30.19" Hg
Pressure 1015.3 hPa
Elevation 1678
METAR KRIL 182053Z AUTO VRB03KT 10SM CLR 26/11 A3019 RMK AO2 SLP153 T02610111 58034
Observed Flight Rules
Aug-18 @ 20:53 UTC
(an hour ago)
VFR
Wind Visibility
Variable at 3 knots 10 miles
Clouds
  • Clear skies
Temperature Dewpoint
26°C / 79°F 11°C / 52°F
Humidity Altimeter Pressure
39% 30.19" Hg 1015.3 hPa